Time;durP1;ratioP1;P1;durP2;ratioP2;P2;SDS_P1;SDS_P2;PMS_P1;PMS_P2;Temp;Humidity;BMP_temperature;BMP_pressure;BME280_temperature;BME280_humidity;BME280_pressure;Samples;Min_cycle;Max_cycle;Signal;HPM_P1;HPM_P2
2023/05/06 00:00:34;;;;;;;15.82;9.68;;;;;;;9.33;88.48;101430.00;5099235;28;20126;-57
2023/05/06 00:03:00;;;;;;;17.48;10.35;;;;;;;9.37;89.25;101429.00;5106353;28;20436;-57
2023/05/06 00:05:25;;;;;;;14.68;10.00;;;;;;;9.30;88.51;101422.19;5116076;28;20024;-58
2023/05/06 00:07:51;;;;;;;21.23;11.20;;;;;;;9.26;89.39;101423.16;5098816;28;20081;-57
2023/05/06 00:10:17;;;;;;;18.02;10.73;;;;;;;9.29;90.24;101415.16;5099857;28;20020;-58
2023/05/06 00:12:42;;;;;;;14.38;10.52;;;;;;;9.26;88.85;101417.03;5117002;28;20128;-57
2023/05/06 00:15:08;;;;;;;16.48;10.32;;;;;;;9.23;89.06;101412.69;5110298;28;20047;-57
2023/05/06 00:17:33;;;;;;;46.53;12.40;;;;;;;9.26;89.81;101402.06;5108801;28;20024;-57
2023/05/06 00:19:59;;;;;;;16.52;10.43;;;;;;;9.23;89.46;101399.50;5115334;28;20023;-57
2023/05/06 00:22:24;;;;;;;19.67;11.10;;;;;;;9.19;89.29;101397.88;5116279;28;20460;-57
2023/05/06 00:24:50;;;;;;;18.80;10.73;;;;;;;9.18;88.67;101390.88;5098985;28;20073;-57
2023/05/06 00:27:15;;;;;;;17.55;9.95;;;;;;;9.13;88.67;101392.78;5095117;28;20068;-56
2023/05/06 00:29:40;;;;;;;16.60;9.90;;;;;;;9.09;88.71;101392.03;5095133;28;20050;-56
2023/05/06 00:32:06;;;;;;;16.85;9.90;;;;;;;8.99;88.21;101391.41;5094184;28;20172;-56
2023/05/06 00:34:31;;;;;;;23.15;10.43;;;;;;;9.05;88.38;101389.50;5095390;28;20318;-56
2023/05/06 00:36:57;;;;;;;19.67;10.48;;;;;;;9.03;88.80;101383.44;5094687;28;20042;-57
2023/05/06 00:39:23;;;;;;;25.35;11.63;;;;;;;8.97;89.19;101379.19;5095181;28;20174;-57
2023/05/06 00:41:49;;;;;;;16.17;10.13;;;;;;;8.95;88.82;101389.75;5094906;28;20036;-57
2023/05/06 00:44:14;;;;;;;22.65;10.82;;;;;;;8.93;88.89;101383.69;5100267;28;20155;-56
2023/05/06 00:46:41;;;;;;;19.65;10.40;;;;;;;8.93;89.10;101385.47;5097449;28;20039;-57
2023/05/06 00:49:07;;;;;;;17.48;9.95;;;;;;;8.85;88.68;101379.53;5117296;28;20035;-57
2023/05/06 00:51:32;;;;;;;21.23;10.27;;;;;;;8.79;88.72;101383.19;5122601;28;20031;-56
2023/05/06 00:53:59;;;;;;;21.13;10.23;;;;;;;8.79;88.79;101383.19;5101012;28;20038;-57
2023/05/06 00:56:25;;;;;;;23.27;10.57;;;;;;;8.74;89.00;101379.84;5111184;28;20038;-57
2023/05/06 00:58:50;;;;;;;21.85;10.43;;;;;;;8.64;88.69;101380.06;5115175;28;20336;-57
2023/05/06 01:01:16;;;;;;;28.77;10.45;;;;;;;8.66;89.67;101387.94;5113391;28;20450;-57
2023/05/06 01:03:41;;;;;;;17.20;10.40;;;;;;;8.74;89.77;101385.09;5114939;28;20039;-57
2023/05/06 01:06:40;;;;;;;21.17;11.18;;;;;;;8.68;89.58;101385.28;5114936;28;20039;-57
2023/05/06 01:09:15;;;;;;;25.58;11.77;;;;;;;8.56;89.03;101382.06;5092984;28;20097;-57
2023/05/06 01:11:48;;;;;;;20.38;10.52;;;;;;;8.60;89.39;101382.88;5109098;28;20078;-57
2023/05/06 01:14:19;;;;;;;21.80;12.07;;;;;;;8.55;89.87;101380.34;5101079;28;20026;-56
2023/05/06 01:16:46;;;;;;;;;;;;;;;8.50;89.47;101374.34;5109232;28;20032;-55
2023/05/06 01:19:22;;;;;;;21.08;10.93;;;;;;;8.59;90.47;101381.13;5108142;28;20002;-56
2023/05/06 01:21:52;;;;;;;22.15;10.23;;;;;;;8.54;90.14;101378.59;5115699;28;20043;-58
2023/05/06 01:24:17;;;;;;;19.50;10.25;;;;;;;8.53;89.98;101381.28;5114598;28;20051;-56
2023/05/06 01:26:42;;;;;;;18.02;10.25;;;;;;;8.44;89.92;101383.25;5114717;28;20062;-57
2023/05/06 01:29:08;;;;;;;19.63;10.45;;;;;;;8.40;89.86;101380.72;5114248;28;20054;-57
2023/05/06 01:31:47;;;;;;;20.02;11.45;;;;;;;8.44;90.79;101385.03;5111557;28;20455;-56
2023/05/06 01:34:42;;;;;;;23.00;10.85;;;;;;;8.45;91.47;101378.84;5095278;28;20067;-57
2023/05/06 01:37:24;;;;;;;15.70;10.95;;;;;;;8.49;92.74;101380.50;5109743;28;20055;-56
2023/05/06 01:39:54;;;;;;;22.65;13.23;;;;;;;8.52;93.55;101375.16;5105804;28;20126;-56
2023/05/06 01:42:22;;;;;;;26.63;12.05;;;;;;;8.58;93.70;101380.28;5095981;28;20043;-56
2023/05/06 01:44:48;;;;;;;23.98;13.52;;;;;;;8.58;93.49;101375.00;5098273;28;20028;-56
2023/05/06 01:47:14;;;;;;;27.92;13.15;;;;;;;8.57;93.33;101372.41;5094108;28;20758;-56
2023/05/06 01:49:40;;;;;;;17.60;11.00;;;;;;;8.56;93.13;101366.25;5092920;28;20028;-57
2023/05/06 01:52:05;;;;;;;18.85;10.45;;;;;;;8.56;92.71;101360.97;5102908;27;20023;-56
2023/05/06 01:54:31;;;;;;;20.58;11.52;;;;;;;8.54;92.82;101357.53;5095820;28;20128;-57
2023/05/06 01:56:56;;;;;;;25.95;11.68;;;;;;;8.56;93.31;101355.72;5092658;28;20534;-57
2023/05/06 01:59:22;;;;;;;25.40;10.93;;;;;;;8.51;93.10;101346.22;5093480;28;20486;-57
2023/05/06 02:01:47;;;;;;;20.85;11.48;;;;;;;8.51;92.61;101341.81;5093879;28;20036;-56
2023/05/06 02:04:13;;;;;;;14.77;10.13;;;;;;;8.44;92.61;101356.91;5093517;28;20026;-57
2023/05/06 02:06:38;;;;;;;18.42;11.30;;;;;;;8.44;92.20;101359.56;5093980;28;20103;-58
2023/05/06 02:09:04;;;;;;;21.95;10.80;;;;;;;8.42;92.31;101363.13;5100037;28;20028;-57
2023/05/06 02:11:29;;;;;;;21.52;11.35;;;;;;;8.38;92.27;101361.47;5108082;28;20020;-58
2023/05/06 02:13:54;;;;;;;16.50;10.88;;;;;;;8.28;91.95;101364.31;5111475;28;20356;-57
2023/05/06 02:16:20;;;;;;;22.88;11.77;;;;;;;8.37;92.91;101359.72;5102550;28;20053;-56
2023/05/06 02:18:46;;;;;;;21.10;11.43;;;;;;;8.37;93.18;101364.97;5113723;28;20073;-57
2023/05/06 02:21:11;;;;;;;19.15;11.20;;;;;;;8.36;93.04;101368.53;5115825;28;20038;-57
2023/05/06 02:23:37;;;;;;;23.92;11.18;;;;;;;8.31;92.70;101365.16;5106456;28;20036;-57
2023/05/06 02:26:03;;;;;;;17.90;12.45;;;;;;;8.35;93.40;101361.53;5096230;28;20035;-56
2023/05/06 02:28:28;;;;;;;20.83;11.63;;;;;;;8.35;93.28;101372.94;5112690;28;20355;-56
2023/05/06 02:30:57;;;;;;;19.02;11.80;;;;;;;8.30;93.29;101373.97;5111371;28;20051;-57
2023/05/06 02:33:23;;;;;;;23.55;12.88;;;;;;;8.23;92.64;101379.38;5104326;28;20027;-55
2023/05/06 02:35:49;;;;;;;26.02;11.75;;;;;;;8.25;92.82;101374.09;5096528;28;20039;-57
2023/05/06 02:38:15;;;;;;;20.10;11.27;;;;;;;8.30;93.01;101379.22;5095343;28;20085;-56
2023/05/06 02:40:40;;;;;;;21.58;11.70;;;;;;;8.28;93.24;101366.97;5103963;28;20596;-57
2023/05/06 02:43:05;;;;;;;20.35;11.80;;;;;;;8.35;93.26;101372.06;5113364;28;20290;-56
2023/05/06 02:45:31;;;;;;;18.63;11.95;;;;;;;8.24;92.83;101370.59;5093068;28;20040;-56
2023/05/06 02:47:56;;;;;;;19.33;11.95;;;;;;;8.18;92.73;101367.25;5093170;28;20039;-56
2023/05/06 02:50:21;;;;;;;22.77;12.68;;;;;;;8.26;92.95;101363.50;5092779;28;20441;-57
2023/05/06 02:52:47;;;;;;;20.65;12.55;;;;;;;8.28;93.62;101356.41;5116584;28;20030;-57
2023/05/06 02:55:12;;;;;;;25.13;12.55;;;;;;;8.22;92.26;101367.16;5114202;27;20031;-56
2023/05/06 02:57:38;;;;;;;27.60;12.55;;;;;;;8.31;92.91;101354.63;5101615;28;20043;-56
2023/05/06 03:00:05;;;;;;;21.13;11.57;;;;;;;8.23;92.25;101358.31;5114159;28;20451;-56
2023/05/06 03:02:30;;;;;;;17.85;12.25;;;;;;;8.26;92.52;101358.25;5097690;28;20397;-56
2023/05/06 03:04:56;;;;;;;20.33;12.20;;;;;;;8.28;92.27;101360.84;5096230;28;20036;-57
2023/05/06 03:07:21;;;;;;;19.63;11.30;;;;;;;8.16;91.96;101364.66;5097368;28;20024;-57
2023/05/06 03:09:47;;;;;;;20.92;13.57;;;;;;;8.22;92.44;101371.53;5104664;28;20042;-57
2023/05/06 03:12:12;;;;;;;18.77;10.48;;;;;;;8.18;92.36;101365.47;5117911;28;20028;-56
2023/05/06 03:14:37;;;;;;;22.63;12.52;;;;;;;8.15;92.26;101365.56;5115569;28;20335;-57
2023/05/06 03:17:03;;;;;;;21.15;12.60;;;;;;;8.13;92.85;101356.84;5111762;28;20084;-57
2023/05/06 03:19:28;;;;;;;28.92;13.20;;;;;;;8.14;92.65;101352.44;5124895;28;20035;-57
2023/05/06 03:21:53;;;;;;;25.10;13.02;;;;;;;8.18;93.05;101344.41;5107994;28;20044;-57
2023/05/06 03:24:19;;;;;;;18.13;12.52;;;;;;;8.12;92.58;101334.03;5117817;28;20103;-56
2023/05/06 03:26:44;;;;;;;22.10;13.23;;;;;;;8.11;92.68;101327.06;5111138;28;20020;-56
2023/05/06 03:29:10;;;;;;;23.70;12.98;;;;;;;8.12;92.50;101335.81;5110184;28;20126;-56
2023/05/06 03:31:35;;;;;;;23.27;12.43;;;;;;;8.05;92.09;101343.00;5125540;28;20028;-56
2023/05/06 03:34:01;;;;;;;19.10;12.90;;;;;;;8.04;92.71;101341.25;5131369;28;20035;-56
2023/05/06 03:36:26;;;;;;;20.63;13.48;;;;;;;8.11;93.24;101337.59;5105992;28;20031;-56
2023/05/06 03:38:53;;;;;;;22.10;12.23;;;;;;;8.13;93.09;101340.19;5099717;28;20058;-57
2023/05/06 03:41:18;;;;;;;22.27;13.60;;;;;;;8.16;93.08;101340.97;5112813;28;20119;-57
2023/05/06 03:43:44;;;;;;;20.60;12.27;;;;;;;8.07;92.44;101333.28;5113139;28;20127;-58
2023/05/06 03:46:10;;;;;;;20.77;13.35;;;;;;;8.08;92.79;101321.88;5097788;28;20428;-56
2023/05/06 03:48:35;;;;;;;24.83;13.73;;;;;;;8.08;93.00;101327.13;5107064;28;20345;-57
2023/05/06 03:51:01;;;;;;;26.50;13.57;;;;;;;8.12;92.92;101334.03;5098794;28;20034;-56
2023/05/06 03:53:26;;;;;;;24.13;13.68;;;;;;;8.19;92.72;101338.25;5117618;27;20130;-57
2023/05/06 03:55:52;;;;;;;20.10;11.75;;;;;;;8.15;92.33;101333.94;5102428;28;20036;-56
2023/05/06 03:58:17;;;;;;;22.52;11.77;;;;;;;8.01;91.58;101330.81;5115851;28;20337;-56
2023/05/06 04:00:43;;;;;;;19.75;11.45;;;;;;;8.07;91.89;101331.53;5115573;27;20403;-56
2023/05/06 04:03:08;;;;;;;19.50;12.85;;;;;;;8.08;92.34;101332.41;5099134;28;20051;-58
2023/05/06 04:05:33;;;;;;;24.20;12.63;;;;;;;8.16;92.30;101334.84;5115460;27;20020;-57
2023/05/06 04:07:59;;;;;;;20.40;12.32;;;;;;;8.19;92.27;101332.97;5128164;27;20084;-57
2023/05/06 04:10:24;;;;;;;19.95;12.40;;;;;;;8.16;91.73;101338.31;5122053;27;20047;-56
2023/05/06 04:12:49;;;;;;;17.23;10.98;;;;;;;8.00;90.46;101344.91;5116677;27;20470;-56
2023/05/06 04:15:15;;;;;;;19.15;12.00;;;;;;;8.05;91.95;101348.28;5111049;27;20023;-57
2023/05/06 04:17:40;;;;;;;23.17;11.40;;;;;;;8.02;90.93;101348.34;5117714;27;20048;-57
2023/05/06 04:20:10;;;;;;;17.77;11.88;;;;;;;7.97;91.10;101352.88;5127272;27;20031;-56
2023/05/06 04:22:36;;;;;;;25.15;12.27;;;;;;;8.06;91.62;101357.91;5115686;28;20055;-57
2023/05/06 04:25:01;;;;;;;19.50;11.60;;;;;;;8.12;91.48;101365.63;5120128;27;20081;-57
2023/05/06 04:27:28;;;;;;;20.13;11.75;;;;;;;8.08;91.38;101370.13;5126060;27;20347;-57
2023/05/06 04:29:54;;;;;;;23.20;11.65;;;;;;;8.13;90.90;101366.50;5128658;27;20111;-57
2023/05/06 04:32:23;;;;;;;18.20;12.10;;;;;;;8.12;91.37;101363.00;5121792;27;20356;-56
2023/05/06 04:34:50;;;;;;;20.38;12.23;;;;;;;8.10;91.21;101370.06;5124630;27;20019;-56
2023/05/06 04:37:17;;;;;;;24.60;12.25;;;;;;;8.03;91.19;101355.34;5116397;27;20039;-58
2023/05/06 04:39:46;;;;;;;21.30;11.48;;;;;;;7.97;90.98;101366.03;5124863;27;20031;-56
2023/05/06 04:42:12;;;;;;;29.38;12.23;;;;;;;8.02;91.66;101358.88;5104704;28;20043;-58
2023/05/06 04:44:38;;;;;;;19.75;10.88;;;;;;;8.06;90.81;101376.34;5095058;28;20028;-58
2023/05/06 04:47:03;;;;;;;19.10;12.93;;;;;;;8.05;90.85;101385.13;5096869;28;20032;-56
2023/05/06 04:49:29;;;;;;;21.45;11.45;;;;;;;7.99;90.50;101374.75;5094605;28;20316;-57
2023/05/06 04:51:55;;;;;;;23.80;11.93;;;;;;;7.95;89.93;101381.00;5103398;27;20079;-58
2023/05/06 04:54:21;;;;;;;24.20;12.43;;;;;;;7.92;90.49;101373.19;5124833;27;20035;-57
2023/05/06 04:56:46;;;;;;;21.90;11.98;;;;;;;7.87;90.47;101368.88;5106203;28;20100;-57
2023/05/06 04:59:12;;;;;;;23.80;11.35;;;;;;;7.80;90.48;101377.84;5094362;28;20038;-57
2023/05/06 05:01:37;;;;;;;21.58;12.40;;;;;;;7.80;90.64;101374.34;5094355;28;20062;-57
2023/05/06 05:04:02;;;;;;;21.92;12.80;;;;;;;7.79;90.83;101373.47;5094333;28;20027;-57
2023/05/06 05:06:28;;;;;;;24.33;12.63;;;;;;;7.73;90.36;101373.59;5096373;28;20032;-57
2023/05/06 05:08:53;;;;;;;18.92;11.93;;;;;;;7.73;90.79;101378.88;5104252;28;20016;-57
2023/05/06 05:11:19;;;;;;;21.55;11.90;;;;;;;7.66;89.80;101379.94;5112447;28;20035;-57
2023/05/06 05:13:44;;;;;;;20.65;12.50;;;;;;;7.63;90.00;101387.88;5115369;28;20087;-58
2023/05/06 05:16:09;;;;;;;21.92;12.25;;;;;;;7.65;90.60;101391.34;5096803;28;20036;-58
2023/05/06 05:18:35;;;;;;;24.98;13.73;;;;;;;7.72;90.98;101392.94;5103632;28;20424;-57
2023/05/06 05:21:00;;;;;;;21.95;12.38;;;;;;;7.60;89.74;101395.84;5114641;28;20039;-58
2023/05/06 05:23:25;;;;;;;22.95;11.77;;;;;;;7.45;88.92;101390.03;5112562;28;20031;-57
2023/05/06 05:25:51;;;;;;;18.58;12.73;;;;;;;7.48;89.89;101403.13;5114488;28;20038;-57
2023/05/06 05:28:17;;;;;;;23.73;11.77;;;;;;;7.49;89.46;101396.97;5114476;28;20111;-57
2023/05/06 05:30:42;;;;;;;25.15;12.25;;;;;;;7.49;89.59;101396.97;5114994;28;20119;-57
2023/05/06 05:33:07;;;;;;;24.50;12.48;;;;;;;7.49;90.04;101399.59;5104614;28;20042;-57
2023/05/06 05:35:33;;;;;;;16.70;11.88;;;;;;;7.52;89.85;101388.16;5093873;28;20123;-58
2023/05/06 05:37:58;;;;;;;21.52;11.98;;;;;;;7.49;89.49;101402.22;5094053;28;20059;-58
2023/05/06 05:40:24;;;;;;;21.95;11.60;;;;;;;7.42;88.54;101395.38;5093841;28;20040;-58
2023/05/06 05:42:49;;;;;;;19.30;11.75;;;;;;;7.34;88.64;101402.59;5107329;28;20027;-58
2023/05/06 05:45:14;;;;;;;24.15;11.80;;;;;;;7.31;88.35;101392.97;5105927;28;20093;-57
2023/05/06 05:47:40;;;;;;;22.48;12.85;;;;;;;7.36;88.89;101403.41;5095509;28;20052;-57
2023/05/06 05:50:06;;;;;;;21.25;12.10;;;;;;;7.47;89.07;101411.03;5093606;28;20036;-58
2023/05/06 05:52:31;;;;;;;21.77;12.50;;;;;;;7.51;89.05;101405.69;5113264;27;20435;-58
2023/05/06 05:54:57;;;;;;;22.77;12.90;;;;;;;7.56;88.77;101415.25;5134876;27;20031;-58
2023/05/06 05:57:22;;;;;;;18.30;11.02;;;;;;;7.39;86.81;101411.22;5099983;27;20084;-58
2023/05/06 05:59:47;;;;;;;21.50;11.90;;;;;;;7.42;88.10;101405.91;5092980;28;20060;-57
2023/05/06 06:02:13;;;;;;;21.65;11.95;;;;;;;7.34;88.24;101408.69;5109229;28;20031;-57
2023/05/06 06:04:38;;;;;;;22.80;12.32;;;;;;;7.30;88.07;101406.16;5113708;28;20027;-58
2023/05/06 06:07:04;;;;;;;22.35;12.18;;;;;;;7.31;88.43;101402.66;5115731;28;20031;-58
2023/05/06 06:09:29;;;;;;;19.88;11.23;;;;;;;7.32;88.90;101404.34;5103577;28;20043;-57
2023/05/06 06:11:55;;;;;;;23.27;13.45;;;;;;;7.35;88.75;101409.56;5117304;28;20327;-58
2023/05/06 06:14:20;;;;;;;17.95;11.63;;;;;;;7.40;88.91;101406.81;5106412;28;20039;-57
2023/05/06 06:16:45;;;;;;;28.75;12.73;;;;;;;7.38;88.65;101414.75;5108453;27;20032;-57
2023/05/06 06:19:12;;;;;;;18.70;11.68;;;;;;;7.26;88.16;101415.03;5121454;27;20046;-57
2023/05/06 06:21:38;;;;;;;22.60;12.82;;;;;;;7.38;88.98;101414.75;5119707;27;20026;-57
2023/05/06 06:24:04;;;;;;;22.27;12.85;;;;;;;7.48;88.26;101416.28;5118765;27;20040;-57
2023/05/06 06:26:29;;;;;;;19.27;13.00;;;;;;;7.64;89.18;101415.94;5111129;28;20050;-58
2023/05/06 06:28:55;;;;;;;19.77;12.57;;;;;;;7.71;88.42;101420.16;5095967;28;20444;-57
2023/05/06 06:31:20;;;;;;;19.33;12.25;;;;;;;7.81;88.12;101413.75;5114124;28;20074;-58
2023/05/06 06:33:45;;;;;;;21.45;11.82;;;;;;;7.87;87.07;101413.63;5113192;28;20428;-58
2023/05/06 06:36:11;;;;;;;18.90;11.88;;;;;;;7.82;86.89;101419.91;5111775;28;20023;-58
2023/05/06 06:38:36;;;;;;;19.65;11.05;;;;;;;7.77;86.17;101417.38;5129005;28;20023;-57
2023/05/06 06:41:01;;;;;;;19.48;12.18;;;;;;;7.84;86.36;101429.50;5122730;27;20404;-57
2023/05/06 06:43:27;;;;;;;25.98;12.30;;;;;;;7.86;86.42;101432.09;5103468;28;20040;-58
2023/05/06 06:45:52;;;;;;;18.92;11.15;;;;;;;7.85;86.11;101431.22;5099698;28;20027;-58
2023/05/06 06:48:18;;;;;;;25.33;12.80;;;;;;;8.01;86.74;101431.75;5091958;28;20040;-58
2023/05/06 06:50:44;;;;;;;19.45;12.00;;;;;;;8.14;87.07;101432.31;5113619;28;20129;-59
2023/05/06 06:53:09;;;;;;;15.68;11.57;;;;;;;8.21;85.98;101428.59;5113335;28;20398;-58
2023/05/06 06:55:35;;;;;;;17.00;11.52;;;;;;;8.22;85.19;101425.09;5112278;28;20516;-57
2023/05/06 06:58:01;;;;;;;16.17;10.82;;;;;;;8.25;84.75;101432.91;5113626;28;20490;-57
2023/05/06 07:00:26;;;;;;;22.10;10.85;;;;;;;8.09;84.31;101434.16;5113250;28;20058;-57
2023/05/06 07:02:52;;;;;;;14.90;10.43;;;;;;;8.09;85.44;101444.69;5112842;28;20036;-57
2023/05/06 07:05:18;;;;;;;19.02;12.23;;;;;;;8.14;84.98;101434.94;5094336;28;20066;-58
2023/05/06 07:07:43;;;;;;;19.42;10.70;;;;;;;8.12;84.96;101441.13;5092999;28;20070;-57
2023/05/06 07:10:09;;;;;;;22.08;10.88;;;;;;;8.15;85.22;101434.03;5097695;28;20016;-58
2023/05/06 07:12:34;;;;;;;20.92;12.07;;;;;;;8.16;85.04;101432.28;5099851;28;20034;-59
2023/05/06 07:15:00;;;;;;;21.02;12.20;;;;;;;8.30;85.21;101437.19;5091598;28;20412;-58
2023/05/06 07:17:25;;;;;;;19.10;11.02;;;;;;;8.31;84.20;101437.16;5092801;28;20154;-59
2023/05/06 07:19:51;;;;;;;26.83;13.48;;;;;;;8.16;83.69;101441.03;5091913;28;20352;-58
2023/05/06 07:22:16;;;;;;;24.08;11.43;;;;;;;8.32;84.25;101445.91;5107238;28;20493;-58
2023/05/06 07:24:41;;;;;;;17.45;11.70;;;;;;;8.26;83.53;101447.78;5112963;28;20171;-59
2023/05/06 07:27:07;;;;;;;18.83;11.90;;;;;;;8.20;84.96;101450.56;5113567;28;20051;-60
2023/05/06 07:29:35;;;;;;;21.88;11.50;;;;;;;8.11;83.55;101463.97;5112048;28;20028;-58
2023/05/06 07:32:00;;;;;;;24.00;12.88;;;;;;;7.97;83.91;101455.53;5092774;28;20020;-58
2023/05/06 07:34:26;;;;;;;18.27;11.98;;;;;;;8.01;83.87;101462.44;5092904;28;20032;-57
2023/05/06 07:36:51;;;;;;;19.75;12.13;;;;;;;7.90;84.07;101460.09;5105822;28;20085;-58
2023/05/06 07:39:16;;;;;;;22.75;12.50;;;;;;;7.96;84.58;101459.06;5105546;28;20421;-57
2023/05/06 07:41:42;;;;;;;16.20;11.20;;;;;;;8.09;84.26;101455.22;5091530;28;20081;-58
2023/05/06 07:44:07;;;;;;;17.67;12.32;;;;;;;7.95;84.24;101457.34;5093758;28;20451;-58
2023/05/06 07:46:34;;;;;;;20.90;12.30;;;;;;;7.87;84.08;101458.38;5113336;28;20134;-57
2023/05/06 07:48:59;;;;;;;19.02;11.35;;;;;;;7.86;83.99;101463.66;5102452;28;20028;-58
2023/05/06 07:51:25;;;;;;;20.25;12.07;;;;;;;7.84;84.26;101461.06;5097631;27;20026;-58
2023/05/06 07:53:51;;;;;;;22.42;13.73;;;;;;;7.95;84.73;101468.72;5136828;27;20034;-57
2023/05/06 07:56:17;;;;;;;20.10;12.57;;;;;;;7.88;84.19;101473.28;5136947;27;20031;-58
2023/05/06 07:58:42;;;;;;;24.85;13.52;;;;;;;7.84;83.75;101471.59;5101850;27;20038;-58
2023/05/06 08:01:08;;;;;;;18.20;12.13;;;;;;;7.91;83.69;101482.84;5130269;27;20031;-58
2023/05/06 08:03:34;;;;;;;19.42;13.07;;;;;;;7.94;83.60;101479.28;5136681;27;20045;-58
2023/05/06 08:06:00;;;;;;;26.90;13.68;;;;;;;8.03;84.32;101481.72;5114920;27;20036;-58
2023/05/06 08:08:28;;;;;;;19.77;12.35;;;;;;;8.00;83.60;101476.53;5107685;27;20397;-58
2023/05/06 08:10:54;;;;;;;23.67;14.13;;;;;;;8.09;84.46;101487.72;5119885;27;20459;-58
2023/05/06 08:13:20;;;;;;;18.40;13.27;;;;;;;8.15;83.98;101491.09;5135383;27;20384;-57
2023/05/06 08:15:45;;;;;;;20.10;13.13;;;;;;;8.10;83.37;101488.56;5125371;27;20035;-58
2023/05/06 08:18:10;;;;;;;16.98;11.98;;;;;;;8.12;83.53;101486.75;5118762;27;20020;-58
2023/05/06 08:20:36;;;;;;;22.48;12.80;;;;;;;8.06;83.66;101489.56;5129175;27;20399;-58
2023/05/06 08:23:01;;;;;;;18.33;13.35;;;;;;;8.13;83.50;101483.22;5120640;27;20054;-58
2023/05/06 08:25:27;;;;;;;20.08;12.63;;;;;;;8.16;83.67;101493.69;5119322;27;20049;-58
2023/05/06 08:27:52;;;;;;;21.95;12.88;;;;;;;8.16;83.32;101492.84;5122252;27;20364;-58
2023/05/06 08:30:17;;;;;;;18.50;12.90;;;;;;;8.19;84.02;101493.63;5135243;27;20028;-58
2023/05/06 08:32:43;;;;;;;20.45;11.75;;;;;;;8.06;83.76;101497.47;5131014;27;20360;-58
2023/05/06 08:35:08;;;;;;;20.20;12.27;;;;;;;8.16;83.30;101501.59;5127495;27;20106;-58
2023/05/06 08:37:34;;;;;;;17.98;13.27;;;;;;;8.16;83.28;101504.22;5127277;27;20027;-59
2023/05/06 08:39:59;;;;;;;20.70;13.00;;;;;;;8.11;83.06;101516.66;5120079;27;20031;-58
2023/05/06 08:42:25;;;;;;;25.83;13.35;;;;;;;8.24;83.86;101512.81;5123074;27;20031;-59
2023/05/06 08:44:51;;;;;;;19.55;12.90;;;;;;;8.22;82.95;101514.63;5133512;27;20066;-58
2023/05/06 08:47:20;;;;;;;19.20;12.02;;;;;;;8.19;82.85;101525.22;5128208;27;20554;-58
2023/05/06 08:49:45;;;;;;;20.10;11.40;;;;;;;8.27;82.66;101528.56;5121394;27;20417;-58
2023/05/06 08:52:11;;;;;;;19.38;12.98;;;;;;;8.16;82.64;101538.47;5121771;27;20110;-58
2023/05/06 08:54:37;;;;;;;20.77;13.48;;;;;;;8.25;83.67;101540.91;5115427;28;20110;-58
2023/05/06 08:57:07;;;;;;;20.17;13.45;;;;;;;8.21;82.39;101543.63;5131834;27;20340;-58
2023/05/06 08:59:33;;;;;;;21.00;12.85;;;;;;;8.19;82.07;101542.78;5134465;27;20226;-58
2023/05/06 09:02:00;;;;;;;18.42;12.35;;;;;;;8.31;82.85;101539.03;5119138;27;20039;-58
2023/05/06 09:04:26;;;;;;;22.30;12.25;;;;;;;8.41;82.21;101536.09;5114925;28;20034;-57
2023/05/06 09:06:51;;;;;;;19.55;12.10;;;;;;;8.45;82.08;101543.09;5119444;27;20031;-58
2023/05/06 09:09:17;;;;;;;19.00;12.05;;;;;;;8.51;81.77;101539.41;5119693;27;20394;-58
2023/05/06 09:11:42;;;;;;;21.73;12.40;;;;;;;8.52;81.38;101540.31;5116835;27;20035;-58
2023/05/06 09:14:15;;;;;;;24.55;12.13;;;;;;;8.51;81.86;101534.16;5115944;27;20074;-58
2023/05/06 09:16:48;;;;;;;21.02;12.55;;;;;;;8.60;82.54;101536.56;5119092;27;20034;-59
2023/05/06 09:19:14;;;;;;;27.98;14.63;;;;;;;8.72;81.78;101530.13;5114782;27;20414;-59
2023/05/06 09:21:42;;;;;;;24.77;14.00;;;;;;;8.74;81.65;101532.72;5114270;28;20076;-58
2023/05/06 09:24:08;;;;;;;24.00;13.63;;;;;;;8.82;82.29;101531.59;5114607;28;20051;-58
2023/05/06 09:26:35;;;;;;;20.58;11.85;;;;;;;8.50;80.87;101535.06;5116168;28;20038;-60
2023/05/06 09:29:02;;;;;;;18.63;11.88;;;;;;;8.31;81.01;101533.75;5114272;27;20038;-58
2023/05/06 09:31:28;;;;;;;16.17;11.85;;;;;;;8.32;81.99;101532.81;5123553;27;20039;-59
2023/05/06 09:33:55;;;;;;;17.42;12.50;;;;;;;8.34;82.80;101536.31;5128480;27;20068;-57
2023/05/06 09:36:22;;;;;;;20.45;12.02;;;;;;;8.38;82.25;101540.59;5121786;27;20037;-57
2023/05/06 09:38:48;;;;;;;20.90;13.80;;;;;;;8.27;83.06;101544.34;5125829;27;20087;-58
2023/05/06 09:41:14;;;;;;;18.63;12.93;;;;;;;8.40;83.28;101538.78;5128064;27;20043;-58
2023/05/06 09:43:43;;;;;;;22.88;14.27;;;;;;;8.40;82.06;101547.56;5133493;27;20454;-57
2023/05/06 09:46:11;;;;;;;19.98;12.55;;;;;;;8.39;82.26;101542.34;5127673;27;20083;-57
2023/05/06 09:48:39;;;;;;;25.45;12.82;;;;;;;8.45;82.58;101552.72;5118915;27;20447;-58
2023/05/06 09:51:06;;;;;;;19.88;12.68;;;;;;;8.38;82.65;101551.13;5113656;27;20027;-57
2023/05/06 09:53:35;;;;;;;18.98;13.43;;;;;;;8.31;83.87;101560.09;5116232;27;20035;-57
2023/05/06 09:56:05;;;;;;;20.60;13.68;;;;;;;8.27;83.26;101570.69;5115391;27;20028;-57
2023/05/06 09:58:31;;;;;;;18.30;11.30;;;;;;;8.19;82.89;101567.38;5113258;28;20026;-59
2023/05/06 10:00:57;;;;;;;19.35;13.30;;;;;;;8.09;83.38;101576.34;5121473;27;20019;-57
2023/05/06 10:03:24;;;;;;;16.15;11.40;;;;;;;8.02;83.53;101569.50;5127712;27;20568;-59
2023/05/06 10:05:51;;;;;;;15.88;11.60;;;;;;;8.18;84.12;101564.78;5124539;27;20038;-58
2023/05/06 10:08:17;;;;;;;28.75;13.48;;;;;;;8.37;83.98;101565.19;5118914;27;20019;-58
2023/05/06 10:10:45;;;;;;;27.58;13.38;;;;;;;8.53;83.70;101571.00;5121423;27;20045;-58
2023/05/06 10:13:12;;;;;;;18.38;12.52;;;;;;;8.51;83.72;101568.41;5120966;27;20030;-58
2023/05/06 10:15:38;;;;;;;21.98;12.10;;;;;;;8.61;83.45;101575.22;5120439;27;20042;-58
2023/05/06 10:18:05;;;;;;;21.05;12.27;;;;;;;8.67;83.50;101574.19;5113994;28;20053;-57
2023/05/06 10:20:33;;;;;;;16.88;12.57;;;;;;;8.68;83.76;101569.75;5106358;28;20042;-58
2023/05/06 10:23:05;;;;;;;18.95;12.88;;;;;;;8.64;83.85;101564.56;5120836;27;20043;-56
2023/05/06 10:25:39;;;;;;;20.40;12.40;;;;;;;8.63;84.62;101562.84;5132249;27;20065;-57
2023/05/06 10:28:06;;;;;;;15.68;12.38;;;;;;;8.47;84.54;101565.88;5113590;28;20041;-58
2023/05/06 10:30:36;;;;;;;18.48;11.18;;;;;;;8.48;84.50;101571.09;5116570;28;20038;-57
2023/05/06 10:33:09;;;;;;;16.35;12.05;;;;;;;8.44;85.43;101566.81;5124747;27;20035;-58
2023/05/06 10:35:48;;;;;;;16.90;11.45;;;;;;;8.36;84.72;101563.47;5118452;28;20496;-58
2023/05/06 10:38:28;;;;;;;20.05;11.95;;;;;;;8.32;85.08;101556.53;5115138;28;20039;-58
2023/05/06 10:40:54;;;;;;;18.42;13.25;;;;;;;8.47;85.79;101561.50;5100770;28;20085;-58
2023/05/06 10:43:33;;;;;;;17.50;10.95;;;;;;;8.65;85.55;101562.81;5094089;28;20119;-58
2023/05/06 10:46:09;;;;;;;15.75;10.30;;;;;;;8.90;84.08;101565.69;5093115;28;20486;-58
2023/05/06 10:48:36;;;;;;;18.52;11.48;;;;;;;8.85;83.88;101567.56;5093421;28;20028;-58
2023/05/06 10:51:17;;;;;;;13.82;10.23;;;;;;;8.90;83.47;101565.69;5112822;28;20032;-58
2023/05/06 10:54:03;;;;;;;15.07;10.48;;;;;;;8.93;83.56;101564.75;5122898;28;20031;-57
2023/05/06 10:56:35;;;;;;;13.95;9.57;;;;;;;9.03;82.91;101565.38;5109895;28;20042;-61
2023/05/06 10:59:04;;;;;;;16.42;10.63;;;;;;;9.07;82.97;101562.63;5124224;28;20436;-58
2023/05/06 11:01:30;;;;;;;11.02;8.90;;;;;;;9.05;82.32;101564.41;5107738;28;20024;-60
2023/05/06 11:03:55;;;;;;;15.50;9.82;;;;;;;8.90;83.26;101570.97;5117232;27;20023;-58
2023/05/06 11:06:40;;;;;;;12.68;9.30;;;;;;;8.93;83.36;101564.75;5119962;28;20031;-57
2023/05/06 11:09:14;;;;;;;11.95;9.40;;;;;;;8.78;83.90;101566.88;5097937;27;20047;-57
2023/05/06 11:11:52;;;;;;;16.02;9.65;;;;;;;8.84;83.98;101568.47;5109451;28;20070;-59
2023/05/06 11:14:26;;;;;;;14.07;10.60;;;;;;;8.89;84.46;101577.16;5113454;28;20328;-57